sensor_id;sensor_type;location;lat;lon;timestamp;pressure;altitude;pressure_sealevel;temperature;humidity
18985;BME280;9626;52.552;13.436;2023-04-19T00:00:52;102151.88;;;6.20;100.00
18985;BME280;9626;52.552;13.436;2023-04-19T00:03:18;102150.97;;;6.20;100.00
18985;BME280;9626;52.552;13.436;2023-04-19T00:05:44;102148.34;;;6.20;100.00
18985;BME280;9626;52.552;13.436;2023-04-19T00:08:11;102149.19;;;6.19;100.00
18985;BME280;9626;52.552;13.436;2023-04-19T00:10:37;102152.66;;;6.16;100.00
18985;BME280;9626;52.552;13.436;2023-04-19T00:13:04;102152.69;;;6.18;100.00
18985;BME280;9626;52.552;13.436;2023-04-19T00:15:30;102148.38;;;6.23;100.00
18985;BME280;9626;52.552;13.436;2023-04-19T00:17:57;102144.84;;;6.21;100.00
18985;BME280;9626;52.552;13.436;2023-04-19T00:20:23;102142.16;;;6.18;99.12
18985;BME280;9626;52.552;13.436;2023-04-19T00:22:49;102141.25;;;6.17;99.20
18985;BME280;9626;52.552;13.436;2023-04-19T00:25:15;102128.00;;;6.11;97.82
18985;BME280;9626;52.552;13.436;2023-04-19T00:27:41;102137.53;;;6.07;97.07
18985;BME280;9626;52.552;13.436;2023-04-19T00:30:07;102142.84;;;6.09;97.32
18985;BME280;9626;52.552;13.436;2023-04-19T00:32:34;102134.84;;;6.04;95.68
18985;BME280;9626;52.552;13.436;2023-04-19T00:35:00;102140.97;;;6.03;94.89
18985;BME280;9626;52.552;13.436;2023-04-19T00:37:26;102141.09;;;6.09;94.01
18985;BME280;9626;52.552;13.436;2023-04-19T00:39:52;102133.13;;;6.06;93.43
18985;BME280;9626;52.552;13.436;2023-04-19T00:42:18;102133.06;;;6.03;93.24
18985;BME280;9626;52.552;13.436;2023-04-19T00:44:44;102133.00;;;6.00;94.12
18985;BME280;9626;52.552;13.436;2023-04-19T00:47:10;102136.53;;;6.02;93.89
18985;BME280;9626;52.552;13.436;2023-04-19T00:49:37;102140.06;;;6.01;93.45
18985;BME280;9626;52.552;13.436;2023-04-19T00:52:03;102137.25;;;5.95;93.40
18985;BME280;9626;52.552;13.436;2023-04-19T00:54:29;102137.94;;;5.86;93.14
18985;BME280;9626;52.552;13.436;2023-04-19T00:56:56;102137.88;;;5.85;93.39
18985;BME280;9626;52.552;13.436;2023-04-19T00:59:23;102130.88;;;5.84;93.64
18985;BME280;9626;52.552;13.436;2023-04-19T01:01:50;102133.50;;;5.84;93.93
18985;BME280;9626;52.552;13.436;2023-04-19T01:04:16;102128.03;;;5.76;94.86
18985;BME280;9626;52.552;13.436;2023-04-19T01:06:42;102139.38;;;5.73;94.26
18985;BME280;9626;52.552;13.436;2023-04-19T01:09:08;102131.25;;;5.64;95.33
18985;BME280;9626;52.552;13.436;2023-04-19T01:11:35;102132.06;;;5.62;95.36
18985;BME280;9626;52.552;13.436;2023-04-19T01:14:01;102137.41;;;5.63;95.63
18985;BME280;9626;52.552;13.436;2023-04-19T01:16:28;102132.91;;;5.59;95.67
18985;BME280;9626;52.552;13.436;2023-04-19T01:18:54;102136.25;;;5.53;96.07
18985;BME280;9626;52.552;13.436;2023-04-19T01:21:20;102129.06;;;5.45;96.93
18985;BME280;9626;52.552;13.436;2023-04-19T01:23:47;102132.53;;;5.44;96.73
18985;BME280;9626;52.552;13.436;2023-04-19T01:26:13;102132.22;;;5.31;98.47
18985;BME280;9626;52.552;13.436;2023-04-19T01:28:39;102131.97;;;5.22;98.93
18985;BME280;9626;52.552;13.436;2023-04-19T01:31:05;102126.94;;;5.30;98.92
18985;BME280;9626;52.552;13.436;2023-04-19T01:33:31;102130.59;;;5.36;97.77
18985;BME280;9626;52.552;13.436;2023-04-19T01:35:57;102129.53;;;5.28;98.14
18985;BME280;9626;52.552;13.436;2023-04-19T01:38:23;102117.94;;;5.20;99.03
18985;BME280;9626;52.552;13.436;2023-04-19T01:40:49;102127.50;;;5.18;99.21
18985;BME280;9626;52.552;13.436;2023-04-19T01:43:16;102120.44;;;5.15;99.99
18985;BME280;9626;52.552;13.436;2023-04-19T01:45:43;102116.09;;;5.16;98.98
18985;BME280;9626;52.552;13.436;2023-04-19T01:48:10;102110.59;;;5.06;99.56
18985;BME280;9626;52.552;13.436;2023-04-19T01:50:36;102119.25;;;5.02;100.00
18985;BME280;9626;52.552;13.436;2023-04-19T01:53:02;102115.59;;;4.97;99.97
18985;BME280;9626;52.552;13.436;2023-04-19T01:55:29;102118.38;;;5.02;100.00
18985;BME280;9626;52.552;13.436;2023-04-19T01:57:55;102107.69;;;4.96;100.00
18985;BME280;9626;52.552;13.436;2023-04-19T02:00:21;102108.47;;;4.91;100.00
18985;BME280;9626;52.552;13.436;2023-04-19T02:02:47;102105.69;;;4.85;100.00
18985;BME280;9626;52.552;13.436;2023-04-19T02:05:14;102103.09;;;4.87;100.00
18985;BME280;9626;52.552;13.436;2023-04-19T02:07:40;102105.59;;;4.82;100.00
18985;BME280;9626;52.552;13.436;2023-04-19T02:10:11;102108.97;;;4.78;100.00
18985;BME280;9626;52.552;13.436;2023-04-19T02:12:37;102103.63;;;4.73;100.00
18985;BME280;9626;52.552;13.436;2023-04-19T02:15:03;102099.97;;;4.68;100.00
18985;BME280;9626;52.552;13.436;2023-04-19T02:17:30;102097.34;;;4.68;100.00
18985;BME280;9626;52.552;13.436;2023-04-19T02:19:56;102102.34;;;4.59;100.00
18985;BME280;9626;52.552;13.436;2023-04-19T02:22:22;102097.94;;;4.58;100.00
18985;BME280;9626;52.552;13.436;2023-04-19T02:24:51;102097.09;;;4.59;100.00
18985;BME280;9626;52.552;13.436;2023-04-19T02:27:17;102096.97;;;4.54;100.00
18985;BME280;9626;52.552;13.436;2023-04-19T02:29:43;102089.09;;;4.54;100.00
18985;BME280;9626;52.552;13.436;2023-04-19T02:32:12;102091.03;;;4.62;100.00
18985;BME280;9626;52.552;13.436;2023-04-19T02:34:40;102088.31;;;4.57;100.00
18985;BME280;9626;52.552;13.436;2023-04-19T02:37:06;102086.47;;;4.54;100.00
18985;BME280;9626;52.552;13.436;2023-04-19T02:39:32;102089.22;;;4.59;100.00
18985;BME280;9626;52.552;13.436;2023-04-19T02:41:59;102083.06;;;4.57;100.00
18985;BME280;9626;52.552;13.436;2023-04-19T02:44:25;102084.66;;;4.52;100.00
18985;BME280;9626;52.552;13.436;2023-04-19T02:46:53;102079.50;;;4.55;100.00
18985;BME280;9626;52.552;13.436;2023-04-19T02:49:19;102080.84;;;4.40;100.00
18985;BME280;9626;52.552;13.436;2023-04-19T02:51:46;102077.13;;;4.32;100.00
18985;BME280;9626;52.552;13.436;2023-04-19T02:54:12;102076.69;;;4.47;100.00
18985;BME280;9626;52.552;13.436;2023-04-19T02:56:38;102072.47;;;4.54;100.00
18985;BME280;9626;52.552;13.436;2023-04-19T02:59:05;102064.50;;;4.51;100.00
18985;BME280;9626;52.552;13.436;2023-04-19T03:01:31;102063.16;;;4.65;100.00
18985;BME280;9626;52.552;13.436;2023-04-19T03:03:57;102062.19;;;4.62;100.00
18985;BME280;9626;52.552;13.436;2023-04-19T03:06:24;102059.84;;;4.72;100.00
18985;BME280;9626;52.552;13.436;2023-04-19T03:08:51;102050.69;;;4.58;100.00
18985;BME280;9626;52.552;13.436;2023-04-19T03:11:17;102052.63;;;4.64;100.00
18985;BME280;9626;52.552;13.436;2023-04-19T03:13:43;102053.56;;;4.67;100.00
18985;BME280;9626;52.552;13.436;2023-04-19T03:16:09;102045.63;;;4.64;100.00
18985;BME280;9626;52.552;13.436;2023-04-19T03:18:35;102050.28;;;4.74;100.00
18985;BME280;9626;52.552;13.436;2023-04-19T03:21:02;102051.66;;;4.60;100.00
18985;BME280;9626;52.552;13.436;2023-04-19T03:23:28;102043.75;;;4.59;100.00
18985;BME280;9626;52.552;13.436;2023-04-19T03:25:55;102041.72;;;4.48;100.00
18985;BME280;9626;52.552;13.436;2023-04-19T03:28:21;102043.38;;;4.45;100.00
18985;BME280;9626;52.552;13.436;2023-04-19T03:30:47;102035.59;;;4.48;100.00
18985;BME280;9626;52.552;13.436;2023-04-19T03:33:13;102041.38;;;4.36;100.00
18985;BME280;9626;52.552;13.436;2023-04-19T03:35:39;102033.84;;;4.16;100.00
18985;BME280;9626;52.552;13.436;2023-04-19T03:38:05;102030.72;;;3.99;100.00
18985;BME280;9626;52.552;13.436;2023-04-19T03:40:32;102024.34;;;3.89;100.00
18985;BME280;9626;52.552;13.436;2023-04-19T03:42:58;102020.25;;;3.99;100.00
18985;BME280;9626;52.552;13.436;2023-04-19T03:45:24;102021.00;;;3.95;100.00
18985;BME280;9626;52.552;13.436;2023-04-19T03:47:51;102020.88;;;3.91;100.00
18985;BME280;9626;52.552;13.436;2023-04-19T03:50:17;102019.91;;;3.87;100.00
18985;BME280;9626;52.552;13.436;2023-04-19T03:52:43;102019.03;;;3.86;100.00
18985;BME280;9626;52.552;13.436;2023-04-19T03:55:10;102014.94;;;3.96;100.00
18985;BME280;9626;52.552;13.436;2023-04-19T03:57:37;102012.25;;;3.95;100.00
18985;BME280;9626;52.552;13.436;2023-04-19T04:00:04;102007.91;;;3.95;100.00
18985;BME280;9626;52.552;13.436;2023-04-19T04:02:36;102008.50;;;3.85;100.00
18985;BME280;9626;52.552;13.436;2023-04-19T04:05:04;102005.69;;;3.79;100.00
18985;BME280;9626;52.552;13.436;2023-04-19T04:07:30;102003.09;;;3.80;100.00
18985;BME280;9626;52.552;13.436;2023-04-19T04:09:56;102011.78;;;3.78;100.00
18985;BME280;9626;52.552;13.436;2023-04-19T04:12:24;102002.16;;;3.77;100.00
18985;BME280;9626;52.552;13.436;2023-04-19T04:14:51;102004.16;;;3.87;100.00
18985;BME280;9626;52.552;13.436;2023-04-19T04:17:17;101997.06;;;3.83;100.00
18985;BME280;9626;52.552;13.436;2023-04-19T04:19:43;101997.94;;;3.82;100.00
18985;BME280;9626;52.552;13.436;2023-04-19T04:22:09;101999.97;;;3.92;100.00
18985;BME280;9626;52.552;13.436;2023-04-19T04:24:38;101997.25;;;3.89;100.00
18985;BME280;9626;52.552;13.436;2023-04-19T04:27:09;101999.47;;;3.75;100.00
18985;BME280;9626;52.552;13.436;2023-04-19T04:29:36;102005.53;;;3.72;100.00
18985;BME280;9626;52.552;13.436;2023-04-19T04:32:04;101997.69;;;3.74;100.00
18985;BME280;9626;52.552;13.436;2023-04-19T04:34:30;101999.06;;;3.61;100.00
18985;BME280;9626;52.552;13.436;2023-04-19T04:36:57;101994.75;;;3.63;100.00
18985;BME280;9626;52.552;13.436;2023-04-19T04:39:23;101994.81;;;3.65;100.00
18985;BME280;9626;52.552;13.436;2023-04-19T04:41:49;101988.00;;;3.71;100.00
18985;BME280;9626;52.552;13.436;2023-04-19T04:44:16;101988.38;;;3.84;100.00
18985;BME280;9626;52.552;13.436;2023-04-19T04:46:42;101988.28;;;3.81;100.00
18985;BME280;9626;52.552;13.436;2023-04-19T04:49:08;101991.63;;;3.75;100.00
18985;BME280;9626;52.552;13.436;2023-04-19T04:51:36;101984.56;;;3.72;100.00
18985;BME280;9626;52.552;13.436;2023-04-19T04:54:02;101989.88;;;3.76;100.00
18985;BME280;9626;52.552;13.436;2023-04-19T04:56:29;101981.16;;;3.75;100.00
18985;BME280;9626;52.552;13.436;2023-04-19T04:58:56;101979.44;;;3.77;100.00
18985;BME280;9626;52.552;13.436;2023-04-19T05:01:22;101989.81;;;3.72;100.00
18985;BME280;9626;52.552;13.436;2023-04-19T05:03:49;101987.25;;;3.76;100.00
18985;BME280;9626;52.552;13.436;2023-04-19T05:06:15;101983.81;;;3.77;100.00
18985;BME280;9626;52.552;13.436;2023-04-19T05:08:43;101983.22;;;3.87;100.00
18985;BME280;9626;52.552;13.436;2023-04-19T05:11:09;101983.78;;;4.07;100.00
18985;BME280;9626;52.552;13.436;2023-04-19T05:13:35;101977.56;;;4.03;100.00
18985;BME280;9626;52.552;13.436;2023-04-19T05:16:01;101974.59;;;3.91;100.00
18985;BME280;9626;52.552;13.436;2023-04-19T05:18:27;101972.00;;;3.93;100.00
18985;BME280;9626;52.552;13.436;2023-04-19T05:20:53;101976.59;;;4.00;100.00
18985;BME280;9626;52.552;13.436;2023-04-19T05:23:19;101971.53;;;4.07;100.00
18985;BME280;9626;52.552;13.436;2023-04-19T05:25:46;101971.81;;;4.17;100.00
18985;BME280;9626;52.552;13.436;2023-04-19T05:28:12;101980.44;;;4.13;100.00
18985;BME280;9626;52.552;13.436;2023-04-19T05:30:38;101970.09;;;4.17;100.00
18985;BME280;9626;52.552;13.436;2023-04-19T05:33:06;101963.16;;;4.21;100.00
18985;BME280;9626;52.552;13.436;2023-04-19T05:35:32;101970.53;;;4.34;100.00
18985;BME280;9626;52.552;13.436;2023-04-19T05:37:58;101960.09;;;4.37;100.00
18985;BME280;9626;52.552;13.436;2023-04-19T05:40:24;101962.69;;;4.36;100.00
18985;BME280;9626;52.552;13.436;2023-04-19T05:42:50;101960.03;;;4.34;100.00
18985;BME280;9626;52.552;13.436;2023-04-19T05:45:16;101957.38;;;4.33;100.00
18985;BME280;9626;52.552;13.436;2023-04-19T05:47:46;101955.91;;;4.44;100.00
18985;BME280;9626;52.552;13.436;2023-04-19T05:50:12;101953.31;;;4.46;100.00
18985;BME280;9626;52.552;13.436;2023-04-19T05:52:42;101953.44;;;4.49;100.00
18985;BME280;9626;52.552;13.436;2023-04-19T05:55:09;101953.50;;;4.52;100.00
18985;BME280;9626;52.552;13.436;2023-04-19T05:57:35;101955.34;;;4.56;100.00
18985;BME280;9626;52.552;13.436;2023-04-19T06:00:02;101958.25;;;4.67;100.00
18985;BME280;9626;52.552;13.436;2023-04-19T06:02:29;101954.91;;;4.74;100.00
18985;BME280;9626;52.552;13.436;2023-04-19T06:04:56;101955.13;;;4.83;100.00
18985;BME280;9626;52.552;13.436;2023-04-19T06:07:23;101955.31;;;4.89;100.00
18985;BME280;9626;52.552;13.436;2023-04-19T06:09:49;101944.88;;;4.93;100.00
18985;BME280;9626;52.552;13.436;2023-04-19T06:12:16;101948.53;;;4.99;100.00
18985;BME280;9626;52.552;13.436;2023-04-19T06:14:43;101949.50;;;5.04;100.00
18985;BME280;9626;52.552;13.436;2023-04-19T06:17:09;101954.13;;;5.15;100.00
18985;BME280;9626;52.552;13.436;2023-04-19T06:19:35;101943.00;;;5.25;100.00
18985;BME280;9626;52.552;13.436;2023-04-19T06:22:01;101945.84;;;5.36;100.00
18985;BME280;9626;52.552;13.436;2023-04-19T06:24:27;101947.00;;;5.49;100.00
18985;BME280;9626;52.552;13.436;2023-04-19T06:26:53;101943.56;;;5.53;100.00
18985;BME280;9626;52.552;13.436;2023-04-19T06:29:19;101942.03;;;5.64;100.00
18985;BME280;9626;52.552;13.436;2023-04-19T06:31:46;101940.38;;;5.68;100.00
18985;BME280;9626;52.552;13.436;2023-04-19T06:34:12;101940.59;;;5.79;100.00
18985;BME280;9626;52.552;13.436;2023-04-19T06:36:38;101931.94;;;5.84;100.00
18985;BME280;9626;52.552;13.436;2023-04-19T06:39:04;101938.25;;;5.92;100.00
18985;BME280;9626;52.552;13.436;2023-04-19T06:41:30;101934.06;;;6.02;100.00
18985;BME280;9626;52.552;13.436;2023-04-19T06:43:56;101943.00;;;6.12;100.00
18985;BME280;9626;52.552;13.436;2023-04-19T06:46:22;101927.38;;;6.20;100.00
18985;BME280;9626;52.552;13.436;2023-04-19T06:48:48;101928.28;;;6.20;100.00
18985;BME280;9626;52.552;13.436;2023-04-19T06:51:14;101918.69;;;6.24;100.00
18985;BME280;9626;52.552;13.436;2023-04-19T06:53:42;101916.25;;;6.35;100.00
18985;BME280;9626;52.552;13.436;2023-04-19T06:56:09;101921.75;;;6.50;100.00
18985;BME280;9626;52.552;13.436;2023-04-19T06:58:35;101912.22;;;6.57;100.00
18985;BME280;9626;52.552;13.436;2023-04-19T07:01:02;101905.31;;;6.64;100.00
18985;BME280;9626;52.552;13.436;2023-04-19T07:03:29;101895.88;;;6.75;100.00
18985;BME280;9626;52.552;13.436;2023-04-19T07:05:55;101898.59;;;6.83;100.00
18985;BME280;9626;52.552;13.436;2023-04-19T07:08:23;101895.13;;;6.87;100.00
18985;BME280;9626;52.552;13.436;2023-04-19T07:10:49;101898.72;;;6.92;100.00
18985;BME280;9626;52.552;13.436;2023-04-19T07:13:15;101889.97;;;6.93;99.05
18985;BME280;9626;52.552;13.436;2023-04-19T07:15:41;101900.66;;;7.04;99.42
18985;BME280;9626;52.552;13.436;2023-04-19T07:18:07;101885.94;;;7.20;96.78
18985;BME280;9626;52.552;13.436;2023-04-19T07:20:35;101886.97;;;7.28;95.74
18985;BME280;9626;52.552;13.436;2023-04-19T07:23:01;101887.94;;;7.36;93.74
18985;BME280;9626;52.552;13.436;2023-04-19T07:25:27;101885.31;;;7.38;91.64
18985;BME280;9626;52.552;13.436;2023-04-19T07:27:54;101886.16;;;7.35;89.64
18985;BME280;9626;52.552;13.436;2023-04-19T07:30:20;101883.69;;;7.51;88.86
18985;BME280;9626;52.552;13.436;2023-04-19T07:32:46;101877.63;;;7.56;88.09
18985;BME280;9626;52.552;13.436;2023-04-19T07:35:13;101875.97;;;7.66;83.40
18985;BME280;9626;52.552;13.436;2023-04-19T07:37:39;101871.72;;;7.77;81.53
18985;BME280;9626;52.552;13.436;2023-04-19T07:40:05;101869.13;;;7.85;81.87
18985;BME280;9626;52.552;13.436;2023-04-19T07:42:31;101867.41;;;7.87;81.83
18985;BME280;9626;52.552;13.436;2023-04-19T07:44:57;101869.31;;;8.01;79.81
18985;BME280;9626;52.552;13.436;2023-04-19T07:47:24;101854.56;;;8.26;78.98
18985;BME280;9626;52.552;13.436;2023-04-19T07:49:51;101863.50;;;8.40;76.74
18985;BME280;9626;52.552;13.436;2023-04-19T07:52:17;101854.78;;;8.48;72.77
18985;BME280;9626;52.552;13.436;2023-04-19T07:54:44;101854.09;;;8.72;71.27
18985;BME280;9626;52.552;13.436;2023-04-19T07:57:10;101849.81;;;8.91;68.42
18985;BME280;9626;52.552;13.436;2023-04-19T07:59:36;101851.56;;;8.90;66.18
18985;BME280;9626;52.552;13.436;2023-04-19T08:02:02;101847.28;;;9.12;65.43
18985;BME280;9626;52.552;13.436;2023-04-19T08:04:28;101845.56;;;9.22;62.09
18985;BME280;9626;52.552;13.436;2023-04-19T08:06:54;101846.47;;;9.32;60.53
18985;BME280;9626;52.552;13.436;2023-04-19T08:09:20;101845.69;;;9.53;60.71
18985;BME280;9626;52.552;13.436;2023-04-19T08:11:46;101833.41;;;9.86;59.01
18985;BME280;9626;52.552;13.436;2023-04-19T08:14:12;101832.53;;;10.17;58.25
18985;BME280;9626;52.552;13.436;2023-04-19T08:16:38;101831.66;;;10.04;56.25
18985;BME280;9626;52.552;13.436;2023-04-19T08:19:04;101827.25;;;10.29;55.74
18985;BME280;9626;52.552;13.436;2023-04-19T08:21:30;101819.28;;;10.32;55.72
18985;BME280;9626;52.552;13.436;2023-04-19T08:23:56;101825.53;;;10.40;55.34
18985;BME280;9626;52.552;13.436;2023-04-19T08:26:22;101822.84;;;10.57;54.58
18985;BME280;9626;52.552;13.436;2023-04-19T08:28:48;101826.34;;;10.65;53.24
18985;BME280;9626;52.552;13.436;2023-04-19T08:31:16;101827.22;;;10.66;53.67
18985;BME280;9626;52.552;13.436;2023-04-19T08:33:46;101829.00;;;10.72;53.31
18985;BME280;9626;52.552;13.436;2023-04-19T08:36:12;101827.16;;;10.97;52.57
18985;BME280;9626;52.552;13.436;2023-04-19T08:38:38;101828.09;;;10.77;53.56
18985;BME280;9626;52.552;13.436;2023-04-19T08:41:04;101817.53;;;10.59;53.24
18985;BME280;9626;52.552;13.436;2023-04-19T08:43:34;101821.03;;;10.76;52.85
18985;BME280;9626;52.552;13.436;2023-04-19T08:46:02;101816.63;;;10.75;53.28
18985;BME280;9626;52.552;13.436;2023-04-19T08:48:29;101813.97;;;10.81;53.23
18985;BME280;9626;52.552;13.436;2023-04-19T08:50:56;101808.56;;;11.15;51.88
18985;BME280;9626;52.552;13.436;2023-04-19T08:53:27;101811.06;;;11.43;50.87
18985;BME280;9626;52.552;13.436;2023-04-19T08:55:53;101802.28;;;11.30;51.34
18985;BME280;9626;52.552;13.436;2023-04-19T08:58:24;101798.91;;;10.93;52.57
18985;BME280;9626;52.552;13.436;2023-04-19T09:00:51;101803.38;;;10.78;53.68
18985;BME280;9626;52.552;13.436;2023-04-19T09:03:17;101791.09;;;10.37;53.04
18985;BME280;9626;52.552;13.436;2023-04-19T09:05:44;101794.53;;;10.79;52.06
18985;BME280;9626;52.552;13.436;2023-04-19T09:10:57;101791.47;;;11.66;50.07
18985;BME280;9626;52.552;13.436;2023-04-19T09:13:24;101787.34;;;12.41;48.26
18985;BME280;9626;52.552;13.436;2023-04-19T09:15:51;101782.09;;;12.35;48.39
18985;BME280;9626;52.552;13.436;2023-04-19T09:18:18;101780.03;;;11.59;49.16
18985;BME280;9626;52.552;13.436;2023-04-19T09:20:45;101785.59;;;11.10;50.36
18985;BME280;9626;52.552;13.436;2023-04-19T09:23:17;101768.97;;;10.63;50.80
18985;BME280;9626;52.552;13.436;2023-04-19T09:26:03;101769.03;;;10.47;51.57
18985;BME280;9626;52.552;13.436;2023-04-19T09:28:31;101764.59;;;10.34;51.79
18985;BME280;9626;52.552;13.436;2023-04-19T09:31:11;101761.91;;;10.67;52.01
18985;BME280;9626;52.552;13.436;2023-04-19T09:33:39;101754.09;;;12.00;48.85
18985;BME280;9626;52.552;13.436;2023-04-19T09:36:06;101749.84;;;12.69;47.26
18985;BME280;9626;52.552;13.436;2023-04-19T09:38:48;101745.59;;;13.26;46.35
18985;BME280;9626;52.552;13.436;2023-04-19T09:41:15;101742.13;;;13.21;45.17
18985;BME280;9626;52.552;13.436;2023-04-19T09:43:44;101754.38;;;13.32;45.07
18985;BME280;9626;52.552;13.436;2023-04-19T09:46:30;101753.91;;;13.01;45.02
18985;BME280;9626;52.552;13.436;2023-04-19T09:49:14;101743.69;;;11.71;47.99
18985;BME280;9626;52.552;13.436;2023-04-19T09:51:47;101741.25;;;11.38;49.03
18985;BME280;9626;52.552;13.436;2023-04-19T09:54:15;101744.72;;;12.54;47.07
18985;BME280;9626;52.552;13.436;2023-04-19T09:56:43;101726.66;;;12.83;45.60
18985;BME280;9626;52.552;13.436;2023-04-19T09:59:10;101737.59;;;13.27;44.43
18985;BME280;9626;52.552;13.436;2023-04-19T10:01:46;101727.22;;;13.71;43.29
18985;BME280;9626;52.552;13.436;2023-04-19T10:04:15;101724.31;;;14.35;42.23
18985;BME280;9626;52.552;13.436;2023-04-19T10:06:49;101720.31;;;14.11;42.09
18985;BME280;9626;52.552;13.436;2023-04-19T10:09:20;101728.25;;;14.15;42.17
18985;BME280;9626;52.552;13.436;2023-04-19T10:11:52;101725.06;;;13.95;42.60
18985;BME280;9626;52.552;13.436;2023-04-19T10:14:23;101707.94;;;14.08;42.53
18985;BME280;9626;52.552;13.436;2023-04-19T10:16:50;101710.03;;;14.39;42.57
18985;BME280;9626;52.552;13.436;2023-04-19T10:19:18;101715.88;;;14.58;42.54
18985;BME280;9626;52.552;13.436;2023-04-19T10:21:47;101713.53;;;14.43;42.33
18985;BME280;9626;52.552;13.436;2023-04-19T10:24:15;101703.22;;;13.73;43.18
18985;BME280;9626;52.552;13.436;2023-04-19T10:32:20;101705.47;;;13.99;42.87
18985;BME280;9626;52.552;13.436;2023-04-19T10:34:46;101701.41;;;14.25;42.95
18985;BME280;9626;52.552;13.436;2023-04-19T10:37:15;101722.56;;;14.34;42.25
18985;BME280;9626;52.552;13.436;2023-04-19T10:39:44;101709.78;;;14.51;41.81
18985;BME280;9626;52.552;13.436;2023-04-19T10:42:10;101710.28;;;13.75;42.94
18985;BME280;9626;52.552;13.436;2023-04-19T10:44:37;101706.50;;;13.89;42.75
18985;BME280;9626;52.552;13.436;2023-04-19T10:47:07;101706.00;;;14.65;41.90
18985;BME280;9626;52.552;13.436;2023-04-19T10:49:45;101703.69;;;14.92;41.35
18985;BME280;9626;52.552;13.436;2023-04-19T10:52:27;101690.41;;;14.43;41.29
18985;BME280;9626;52.552;13.436;2023-04-19T10:54:55;101699.13;;;14.51;42.34
18985;BME280;9626;52.552;13.436;2023-04-19T10:57:21;101698.56;;;14.34;42.57
18985;BME280;9626;52.552;13.436;2023-04-19T11:00:21;101683.41;;;13.89;43.58
18985;BME280;9626;52.552;13.436;2023-04-19T11:02:47;101692.75;;;14.59;43.18
18985;BME280;9626;52.552;13.436;2023-04-19T11:05:13;101694.41;;;15.08;41.17
18985;BME280;9626;52.552;13.436;2023-04-19T11:07:39;101697.41;;;14.93;41.61
18985;BME280;9626;52.552;13.436;2023-04-19T11:10:07;101685.19;;;14.82;41.79
18985;BME280;9626;52.552;13.436;2023-04-19T11:12:33;101675.59;;;14.28;43.03
18985;BME280;9626;52.552;13.436;2023-04-19T11:15:00;101686.53;;;15.41;41.28
18985;BME280;9626;52.552;13.436;2023-04-19T11:17:30;101691.03;;;15.75;40.85
18985;BME280;9626;52.552;13.436;2023-04-19T11:22:38;101669.75;;;14.54;42.11
18985;BME280;9626;52.552;13.436;2023-04-19T11:25:15;101678.34;;;13.75;43.81
18985;BME280;9626;52.552;13.436;2023-04-19T11:27:46;101669.75;;;13.58;44.06
18985;BME280;9626;52.552;13.436;2023-04-19T11:30:20;101669.91;;;13.50;44.30
18985;BME280;9626;52.552;13.436;2023-04-19T11:32:53;101660.34;;;13.38;44.35
18985;BME280;9626;52.552;13.436;2023-04-19T11:35:24;101667.44;;;13.36;45.12
18985;BME280;9626;52.552;13.436;2023-04-19T11:37:50;101658.66;;;13.85;43.64
18985;BME280;9626;52.552;13.436;2023-04-19T11:40:19;101663.69;;;14.46;42.24
18985;BME280;9626;52.552;13.436;2023-04-19T11:42:45;101663.69;;;14.01;43.27
18985;BME280;9626;52.552;13.436;2023-04-19T11:45:29;101661.69;;;13.06;44.38
18985;BME280;9626;52.552;13.436;2023-04-19T11:47:56;101659.50;;;12.72;45.09
18985;BME280;9626;52.552;13.436;2023-04-19T11:50:43;101661.63;;;12.42;45.63
18985;BME280;9626;52.552;13.436;2023-04-19T11:53:17;101652.81;;;12.37;45.80
18985;BME280;9626;52.552;13.436;2023-04-19T11:55:44;101651.00;;;12.42;45.71
18985;BME280;9626;52.552;13.436;2023-04-19T12:00:55;101648.41;;;12.36;45.92
18985;BME280;9626;52.552;13.436;2023-04-19T12:03:22;101642.16;;;12.40;45.49
18985;BME280;9626;52.552;13.436;2023-04-19T12:05:53;101636.81;;;12.43;45.88
18985;BME280;9626;52.552;13.436;2023-04-19T12:08:29;101637.41;;;12.67;45.06
18985;BME280;9626;52.552;13.436;2023-04-19T12:10:57;101637.78;;;12.36;45.98
18985;BME280;9626;52.552;13.436;2023-04-19T12:13:24;101626.16;;;12.46;46.22
18985;BME280;9626;52.552;13.436;2023-04-19T12:15:51;101631.66;;;12.29;46.29
18985;BME280;9626;52.552;13.436;2023-04-19T12:18:17;101623.31;;;11.82;47.09
18985;BME280;9626;52.552;13.436;2023-04-19T12:20:45;101624.97;;;11.96;47.75
18985;BME280;9626;52.552;13.436;2023-04-19T12:23:12;101614.22;;;12.08;47.40
18985;BME280;9626;52.552;13.436;2023-04-19T12:25:39;101610.47;;;12.26;47.13
18985;BME280;9626;52.552;13.436;2023-04-19T12:28:06;101602.50;;;12.26;46.58
18985;BME280;9626;52.552;13.436;2023-04-19T12:30:32;101600.72;;;12.27;47.00
18985;BME280;9626;52.552;13.436;2023-04-19T12:32:59;101605.00;;;12.39;46.82
18985;BME280;9626;52.552;13.436;2023-04-19T12:35:26;101602.13;;;12.54;46.99
18985;BME280;9626;52.552;13.436;2023-04-19T12:37:53;101604.91;;;12.46;46.66
18985;BME280;9626;52.552;13.436;2023-04-19T12:40:20;101595.97;;;12.52;46.60
18985;BME280;9626;52.552;13.436;2023-04-19T12:42:46;101589.09;;;12.37;47.26
18985;BME280;9626;52.552;13.436;2023-04-19T12:45:12;101596.75;;;12.60;46.93
18985;BME280;9626;52.552;13.436;2023-04-19T12:47:39;101576.41;;;12.58;45.83
18985;BME280;9626;52.552;13.436;2023-04-19T12:50:06;101578.38;;;12.43;46.13
18985;BME280;9626;52.552;13.436;2023-04-19T12:52:33;101568.09;;;13.39;45.06
18985;BME280;9626;52.552;13.436;2023-04-19T12:54:59;101568.56;;;14.09;43.42
18985;BME280;9626;52.552;13.436;2023-04-19T12:57:25;101570.59;;;14.40;42.74
18985;BME280;9626;52.552;13.436;2023-04-19T12:59:51;101572.44;;;14.77;41.54
18985;BME280;9626;52.552;13.436;2023-04-19T13:02:17;101564.00;;;14.57;41.70
18985;BME280;9626;52.552;13.436;2023-04-19T13:04:44;101565.16;;;14.85;40.68
18985;BME280;9626;52.552;13.436;2023-04-19T13:07:10;101552.75;;;14.00;41.86